Time;durP1;ratioP1;P1;durP2;ratioP2;P2;SDS_P1;SDS_P2;PMS_P1;PMS_P2;Temp;Humidity;BMP_temperature;BMP_pressure;BME280_temperature;BME280_humidity;BME280_pressure;Samples;Min_cycle;Max_cycle;Signal;HPM_P1;HPM_P2
2022/09/03 00:01:50;;;;;;;3.22;1.40;;;;;;;13.39;82.70;100682.69;5073576;28;20422;-75
2022/09/03 00:04:39;;;;;;;2.80;1.98;;;;;;;13.31;82.89;100678.69;5089337;28;20123;-77
2022/09/03 00:07:16;;;;;;;1.70;1.35;;;;;;;13.25;83.25;100674.16;5072289;28;20020;-76
2022/09/03 00:09:49;;;;;;;1.60;1.00;;;;;;;13.22;83.27;100670.22;5072107;28;20056;-76
2022/09/03 00:12:20;;;;;;;1.70;1.38;;;;;;;13.15;84.08;100676.38;5088842;28;20552;-76
2022/09/03 00:14:55;;;;;;;1.88;1.25;;;;;;;13.10;84.47;100669.28;5075624;28;20116;-76
2022/09/03 00:17:24;;;;;;;2.13;1.20;;;;;;;13.06;84.48;100662.97;5089920;28;20032;-76
2022/09/03 00:19:57;;;;;;;3.47;1.33;;;;;;;12.91;85.71;100659.38;5072004;28;20039;-76
2022/09/03 00:22:29;;;;;;;5.32;1.83;;;;;;;12.85;85.71;100655.63;5054117;28;20020;-76
2022/09/03 00:24:56;;;;;;;6.68;1.67;;;;;;;12.75;86.35;100645.59;5072029;28;20111;-76
2022/09/03 00:27:25;;;;;;;2.88;1.40;;;;;;;12.69;86.97;100659.88;5088769;28;20107;-76
2022/09/03 00:30:04;;;;;;;2.03;1.08;;;;;;;12.61;87.38;100663.63;5073017;28;20369;-76
2022/09/03 00:32:56;;;;;;;3.53;1.80;;;;;;;12.59;87.85;100663.34;5074864;28;20048;-76
2022/09/03 00:35:28;;;;;;;4.30;1.27;;;;;;;12.51;88.35;100660.09;5090794;28;20024;-77
2022/09/03 00:37:54;;;;;;;3.40;1.40;;;;;;;12.44;88.85;100659.72;5074143;28;20055;-76
2022/09/03 00:40:31;;;;;;;2.53;1.50;;;;;;;12.38;89.15;100662.50;5057212;28;20032;-76
2022/09/03 00:43:11;;;;;;;2.22;1.65;;;;;;;12.35;89.07;100660.63;5075179;28;20036;-77
2022/09/03 00:45:44;;;;;;;2.35;1.60;;;;;;;12.25;90.24;100653.41;5073238;28;20094;-76
2022/09/03 00:48:12;;;;;;;5.03;2.13;;;;;;;12.22;90.09;100665.84;5055698;28;20027;-77
2022/09/03 00:50:53;;;;;;;5.07;1.85;;;;;;;12.16;90.70;100659.22;5072726;28;20099;-76
2022/09/03 00:53:31;;;;;;;2.85;1.88;;;;;;;12.10;90.50;100670.63;5072730;28;20028;-76
2022/09/03 00:56:12;;;;;;;2.40;1.70;;;;;;;12.03;91.40;100665.28;5072669;28;20028;-76
2022/09/03 00:58:56;;;;;;;2.70;1.83;;;;;;;11.97;91.95;100663.59;5071552;28;20040;-75
2022/09/03 01:01:31;;;;;;;3.50;2.00;;;;;;;11.91;92.29;100662.72;5072577;28;20035;-76
2022/09/03 01:04:27;;;;;;;1.90;1.40;;;;;;;11.84;92.97;100676.16;5072720;28;20477;-75
2022/09/03 01:07:06;;;;;;;2.22;1.50;;;;;;;11.79;93.31;100671.09;5074449;28;20035;-75
2022/09/03 01:09:47;;;;;;;3.60;1.50;;;;;;;11.79;93.41;100661.72;5071409;28;20103;-74
2022/09/03 01:12:17;;;;;;;2.42;1.45;;;;;;;11.76;93.84;100662.72;5071074;28;20040;-75
2022/09/03 01:14:49;;;;;;;3.33;1.60;;;;;;;11.71;94.72;100664.19;5070945;28;20119;-75
2022/09/03 01:17:39;;;;;;;1.67;1.50;;;;;;;11.64;94.07;100660.91;5072491;28;20420;-76
2022/09/03 01:20:17;;;;;;;5.35;1.67;;;;;;;11.64;95.39;100672.38;5054147;28;20420;-76
2022/09/03 01:22:45;;;;;;;1.80;1.40;;;;;;;11.60;95.44;100666.84;5087606;28;20035;-76
2022/09/03 01:25:16;;;;;;;3.15;1.60;;;;;;;11.56;96.14;100677.69;5073880;28;20500;-75
2022/09/03 01:28:12;;;;;;;2.83;1.80;;;;;;;11.53;96.20;100677.88;5089566;28;20037;-76
2022/09/03 01:30:46;;;;;;;6.35;4.30;;;;;;;11.43;96.94;100674.28;5073905;28;20381;-74
2022/09/03 01:33:12;;;;;;;4.05;1.63;;;;;;;11.39;97.53;100668.78;5073728;28;20477;-75
2022/09/03 01:35:43;;;;;;;2.58;1.67;;;;;;;11.32;98.29;100663.41;5073968;28;20028;-75
2022/09/03 01:38:17;;;;;;;2.70;2.22;;;;;;;11.26;98.32;100664.59;5073898;28;20060;-76
2022/09/03 01:42:12;;;;;;;3.13;1.65;;;;;;;11.17;99.50;100658.97;5074138;28;20039;-77
2022/09/03 01:43:56;;;;;;;3.58;2.20;;;;;;;11.11;99.54;100661.69;5073588;28;20024;-77
2022/09/03 01:46:32;;;;;;;4.15;2.00;;;;;;;11.04;100.00;100664.09;5073781;28;20049;-77
2022/09/03 01:49:21;;;;;;;2.75;2.20;;;;;;;10.97;100.00;100665.28;5089359;28;20550;-77
2022/09/03 01:51:56;;;;;;;4.13;2.00;;;;;;;10.88;100.00;100657.53;5059751;28;20397;-76
2022/09/03 01:54:41;;;;;;;3.45;1.90;;;;;;;10.82;100.00;100665.19;5073767;28;20029;-76
2022/09/03 01:57:39;;;;;;;2.60;2.08;;;;;;;10.75;100.00;100656.97;5056728;28;20385;-76
2022/09/03 02:00:13;;;;;;;2.72;2.00;;;;;;;10.69;100.00;100661.78;5068377;28;20124;-76
2022/09/03 02:02:46;;;;;;;3.33;2.00;;;;;;;10.61;100.00;100654.03;5073873;28;20029;-76
2022/09/03 02:05:13;;;;;;;3.47;1.77;;;;;;;10.55;100.00;100651.84;5074255;28;20021;-75
2022/09/03 02:07:59;;;;;;;4.00;2.17;;;;;;;10.51;100.00;100661.88;5073508;28;20056;-76
2022/09/03 02:10:30;;;;;;;3.30;2.15;;;;;;;10.44;100.00;100668.72;5073464;28;20116;-76
2022/09/03 02:13:08;;;;;;;7.07;2.00;;;;;;;10.37;100.00;100663.38;5073371;28;20021;-75
2022/09/03 02:15:37;;;;;;;2.30;1.90;;;;;;;10.33;100.00;100659.91;5073637;28;20024;-76
2022/09/03 02:18:06;;;;;;;6.90;1.92;;;;;;;10.29;100.00;100667.03;5089146;28;20033;-77
2022/09/03 02:20:31;;;;;;;5.40;2.15;;;;;;;10.25;100.00;100664.38;5055486;28;20025;-77
2022/09/03 02:22:57;;;;;;;5.00;2.10;;;;;;;10.22;100.00;100667.41;5089041;28;20082;-76
2022/09/03 02:25:28;;;;;;;2.90;1.90;;;;;;;10.16;100.00;100664.41;5071975;28;20082;-75
2022/09/03 02:27:54;;;;;;;4.37;2.00;;;;;;;10.11;100.00;100665.06;5089177;28;20020;-76
2022/09/03 02:30:19;;;;;;;4.00;2.25;;;;;;;10.06;100.00;100666.50;5073346;28;20024;-77
2022/09/03 02:32:45;;;;;;;4.05;2.13;;;;;;;10.03;100.00;100667.47;5073142;28;20031;-75
2022/09/03 02:35:11;;;;;;;2.30;1.80;;;;;;;10.01;100.00;100663.50;5071916;28;20169;-75
2022/09/03 02:37:37;;;;;;;4.25;2.30;;;;;;;9.96;100.00;100661.28;5071809;28;20069;-76
2022/09/03 02:40:07;;;;;;;3.35;2.45;;;;;;;9.93;100.00;100671.63;5072242;28;20024;-75
2022/09/03 02:42:33;;;;;;;4.57;2.58;;;;;;;9.89;100.00;100664.50;5071845;28;20474;-76
2022/09/03 02:45:16;;;;;;;3.00;1.98;;;;;;;9.87;100.00;100672.75;5054511;28;20024;-75
2022/09/03 02:47:44;;;;;;;4.82;2.13;;;;;;;9.84;100.00;100671.63;5075031;28;20020;-76
2022/09/03 02:50:09;;;;;;;4.03;2.28;;;;;;;9.84;100.00;100670.84;5074829;28;20024;-77
2022/09/03 02:52:35;;;;;;;3.28;1.98;;;;;;;9.83;100.00;100672.13;5074942;28;20020;-76
2022/09/03 02:55:00;;;;;;;4.45;2.30;;;;;;;9.84;100.00;100679.41;5073901;28;20102;-76
2022/09/03 02:57:26;;;;;;;3.70;2.33;;;;;;;9.83;100.00;100674.97;5074869;28;20024;-76
2022/09/03 02:59:52;;;;;;;4.07;2.15;;;;;;;9.86;100.00;100686.22;5075978;28;20370;-76
2022/09/03 03:02:17;;;;;;;2.85;2.13;;;;;;;9.85;100.00;100680.97;5074759;28;20115;-76
2022/09/03 03:04:42;;;;;;;3.88;2.17;;;;;;;9.83;100.00;100677.84;5073875;28;20078;-75
2022/09/03 03:07:08;;;;;;;6.20;2.47;;;;;;;9.84;100.00;100676.56;5074952;28;20024;-76
2022/09/03 03:09:33;;;;;;;2.97;2.13;;;;;;;9.87;100.00;100682.09;5073295;28;20377;-76
2022/09/03 03:11:58;;;;;;;6.75;3.08;;;;;;;9.89;100.00;100676.69;5073297;28;20028;-76
2022/09/03 03:14:24;;;;;;;3.97;2.47;;;;;;;9.95;100.00;100680.47;5090288;28;20521;-76
2022/09/03 03:16:50;;;;;;;4.45;2.40;;;;;;;9.98;100.00;100679.53;5073294;28;20024;-75
2022/09/03 03:19:15;;;;;;;4.93;2.45;;;;;;;10.01;100.00;100674.91;5091397;28;20067;-78
2022/09/03 03:21:41;;;;;;;3.38;2.20;;;;;;;10.07;100.00;100679.50;5076428;28;20025;-75
2022/09/03 03:24:07;;;;;;;3.20;2.67;;;;;;;10.08;100.00;100678.25;5076735;28;20055;-75
2022/09/03 03:26:32;;;;;;;4.13;2.22;;;;;;;10.08;100.00;100680.31;5092381;28;20021;-76
2022/09/03 03:29:00;;;;;;;3.40;2.20;;;;;;;10.07;100.00;100679.50;5076373;28;20522;-75
2022/09/03 03:31:26;;;;;;;3.72;2.53;;;;;;;10.02;100.00;100676.50;5075125;28;20060;-76
2022/09/03 03:33:56;;;;;;;4.93;2.53;;;;;;;9.97;100.00;100669.38;5075102;28;20032;-74
2022/09/03 03:36:24;;;;;;;3.45;2.15;;;;;;;9.95;100.00;100673.97;5076310;28;20032;-75
2022/09/03 03:38:52;;;;;;;9.20;2.80;;;;;;;9.91;100.00;100674.16;5076309;28;20493;-75
2022/09/03 03:41:21;;;;;;;5.80;3.15;;;;;;;9.84;100.00;100673.72;5074939;28;20028;-76
2022/09/03 03:43:47;;;;;;;3.53;2.33;;;;;;;9.81;100.00;100677.50;5058327;28;20059;-75
2022/09/03 03:46:16;;;;;;;19.02;12.88;;;;;;;9.75;100.00;100676.56;5091569;28;20127;-76
2022/09/03 03:48:41;;;;;;;7.05;4.97;;;;;;;9.69;100.00;100677.16;5074539;28;20492;-76
2022/09/03 03:51:08;;;;;;;2.58;2.17;;;;;;;9.63;100.00;100679.09;5074797;28;20048;-76
2022/09/03 03:53:35;;;;;;;4.93;2.85;;;;;;;9.62;100.00;100679.56;5058142;28;20025;-76
2022/09/03 03:56:02;;;;;;;4.20;2.38;;;;;;;9.58;100.00;100681.78;5074427;28;20497;-76
2022/09/03 03:58:30;;;;;;;3.75;2.20;;;;;;;9.54;100.00;100678.31;5091586;28;20496;-75
2022/09/03 04:01:02;;;;;;;4.38;2.75;;;;;;;9.53;100.00;100683.22;5091458;28;20495;-75
2022/09/03 04:03:28;;;;;;;5.05;3.28;;;;;;;9.49;100.00;100682.59;5074519;28;20017;-76
2022/09/03 04:05:55;;;;;;;4.85;2.67;;;;;;;9.49;100.00;100682.59;5074505;28;20030;-75
2022/09/03 04:08:20;;;;;;;3.33;2.05;;;;;;;9.47;100.00;100682.28;5075954;28;20030;-76
2022/09/03 04:10:46;;;;;;;3.67;2.40;;;;;;;9.45;100.00;100684.00;5091415;28;20395;-76
2022/09/03 04:13:11;;;;;;;5.68;2.45;;;;;;;9.46;100.00;100685.59;5074459;28;20020;-77
2022/09/03 04:15:37;;;;;;;3.47;2.33;;;;;;;9.45;100.00;100681.16;5074189;28;20461;-76
2022/09/03 04:18:03;;;;;;;4.13;2.38;;;;;;;9.41;100.00;100666.25;5074260;28;20024;-76
2022/09/03 04:20:28;;;;;;;3.17;2.28;;;;;;;9.51;100.00;100682.91;5075760;28;20016;-75
2022/09/03 04:22:53;;;;;;;5.13;2.70;;;;;;;9.58;100.00;100681.78;5074335;28;20035;-76
2022/09/03 04:25:19;;;;;;;3.38;2.30;;;;;;;9.63;100.00;100681.16;5075302;28;20089;-77
2022/09/03 04:27:44;;;;;;;2.88;1.90;;;;;;;9.70;100.00;100684.47;5074194;28;20044;-76
2022/09/03 04:30:10;;;;;;;6.07;2.25;;;;;;;9.74;100.00;100683.56;5074131;28;20017;-76
2022/09/03 04:32:54;;;;;;;4.20;2.42;;;;;;;9.82;100.00;100693.38;5073924;28;20090;-77
2022/09/03 04:35:32;;;;;;;3.97;2.53;;;;;;;9.81;100.00;100686.88;5075163;28;20024;-76
2022/09/03 04:37:57;;;;;;;4.05;2.95;;;;;;;9.83;100.00;100695.75;5075118;28;20020;-77
2022/09/03 04:40:23;;;;;;;7.18;2.83;;;;;;;9.87;100.00;100702.09;5073852;28;20103;-76
2022/09/03 04:42:48;;;;;;;5.25;2.67;;;;;;;9.86;100.00;100700.50;5074959;28;20063;-77
2022/09/03 04:45:17;;;;;;;4.80;2.63;;;;;;;9.85;100.00;100695.25;5074742;28;20018;-76
2022/09/03 04:47:45;;;;;;;5.55;3.15;;;;;;;9.88;100.00;100700.81;5074979;28;20024;-77
2022/09/03 04:50:12;;;;;;;4.50;2.60;;;;;;;9.89;100.00;100704.47;5090443;28;20025;-76
2022/09/03 04:52:40;;;;;;;5.57;3.10;;;;;;;9.91;100.00;100705.56;5056968;28;20389;-77
2022/09/03 04:55:09;;;;;;;4.70;2.60;;;;;;;9.89;100.00;100690.97;5090513;28;20032;-77
2022/09/03 04:57:36;;;;;;;4.57;2.33;;;;;;;9.92;100.00;100701.44;5073449;28;20025;-77
2022/09/03 05:00:19;;;;;;;5.57;2.70;;;;;;;9.94;100.00;100695.25;5073392;28;20028;-75
2022/09/03 05:02:50;;;;;;;3.58;2.58;;;;;;;9.95;100.00;100694.75;5056727;28;20016;-77
2022/09/03 05:05:16;;;;;;;3.50;2.25;;;;;;;9.96;100.00;100713.47;5074890;28;20024;-76
2022/09/03 05:07:42;;;;;;;4.47;2.38;;;;;;;10.01;100.00;100720.59;5055975;28;20051;-76
2022/09/03 05:10:12;;;;;;;3.28;2.10;;;;;;;10.03;100.00;100720.94;5056380;28;20466;-76
2022/09/03 05:12:39;;;;;;;4.40;2.00;;;;;;;10.08;100.00;100726.00;5056892;28;20036;-76
2022/09/03 05:15:05;;;;;;;6.80;2.50;;;;;;;10.18;100.00;100718.19;5073361;28;20032;-75
2022/09/03 05:17:32;;;;;;;3.28;2.38;;;;;;;10.30;100.00;100720.03;5073457;28;20055;-76
2022/09/03 05:19:57;;;;;;;7.43;2.80;;;;;;;10.42;100.00;100722.72;5074494;28;20024;-76
2022/09/03 05:22:24;;;;;;;3.08;2.45;;;;;;;10.48;100.00;100711.44;5072844;28;20390;-74
2022/09/03 05:24:50;;;;;;;4.35;2.35;;;;;;;10.63;100.00;100720.84;5056198;28;20028;-76
2022/09/03 05:27:16;;;;;;;4.80;2.42;;;;;;;10.78;100.00;100720.94;5073300;28;20027;-75
2022/09/03 05:29:44;;;;;;;5.05;2.33;;;;;;;10.88;100.00;100720.41;5056288;28;20060;-75
2022/09/03 05:32:12;;;;;;;3.33;2.35;;;;;;;11.02;100.00;100721.78;5056003;28;20439;-76
2022/09/03 05:34:38;;;;;;;9.45;2.63;;;;;;;11.15;100.00;100721.56;5056291;28;20115;-76
2022/09/03 05:37:03;;;;;;;6.38;2.10;;;;;;;11.26;100.00;100721.81;5074211;28;20027;-76
2022/09/03 05:39:31;;;;;;;4.72;2.08;;;;;;;11.39;98.93;100720.28;5072994;28;20028;-74
2022/09/03 05:41:58;;;;;;;3.28;1.70;;;;;;;11.46;97.36;100724.84;5074006;28;20031;-74
2022/09/03 05:44:26;;;;;;;6.28;2.13;;;;;;;11.52;96.47;100716.38;5072643;28;20032;-75
2022/09/03 05:46:55;;;;;;;3.83;2.03;;;;;;;11.56;95.62;100723.50;5072359;28;20081;-74
2022/09/03 05:49:20;;;;;;;3.22;1.85;;;;;;;11.64;95.03;100721.03;5073960;28;20048;-77
2022/09/03 05:51:46;;;;;;;4.90;2.00;;;;;;;11.67;94.52;100717.19;5072355;28;20473;-74
2022/09/03 05:54:12;;;;;;;2.50;1.80;;;;;;;11.68;93.52;100715.91;5049148;28;20016;-75
2022/09/03 05:56:46;;;;;;;4.03;1.95;;;;;;;11.67;93.28;100714.31;5072250;28;20024;-75
2022/09/03 05:59:12;;;;;;;4.68;1.60;;;;;;;11.68;93.34;100725.28;5055371;28;20016;-75
2022/09/03 06:01:41;;;;;;;3.90;1.85;;;;;;;11.82;93.14;100730.25;5055489;28;20050;-77
2022/09/03 06:04:17;;;;;;;3.60;1.42;;;;;;;11.95;92.43;100729.97;5056063;28;20029;-77
2022/09/03 06:06:44;;;;;;;5.55;2.20;;;;;;;12.11;91.69;100718.00;5072259;28;20028;-81
2022/09/03 06:09:12;;;;;;;3.75;1.90;;;;;;;12.31;91.03;100717.31;5039002;28;20039;-76
2022/09/03 06:11:43;;;;;;;2.63;2.00;;;;;;;12.48;89.61;100727.03;5072376;28;20043;-75
2022/09/03 06:14:12;;;;;;;5.45;1.95;;;;;;;12.65;88.67;100727.31;5072452;28;20039;-75
2022/09/03 06:16:42;;;;;;;2.65;1.73;;;;;;;12.82;87.75;100724.69;5072059;28;20067;-74
2022/09/03 06:19:10;;;;;;;2.55;2.10;;;;;;;13.11;86.28;100715.97;5072964;28;20020;-79
2022/09/03 06:21:44;;;;;;;3.78;2.28;;;;;;;13.42;83.92;100729.72;5055586;28;20393;-75
2022/09/03 06:24:18;;;;;;;3.35;1.88;;;;;;;14.04;82.71;100731.22;5073660;28;20116;-77
2022/09/03 06:26:45;;;;;;;6.10;2.15;;;;;;;15.38;78.28;100725.22;5039351;28;20109;-76
2022/09/03 06:29:12;;;;;;;3.20;1.92;;;;;;;17.94;68.73;100728.06;5073411;28;20040;-76
2022/09/03 06:31:39;;;;;;;2.22;1.70;;;;;;;20.79;57.03;100735.19;5052999;28;20032;-75
2022/09/03 06:34:17;;;;;;;4.30;1.77;;;;;;;23.10;45.53;100766.97;5057877;28;20021;-77
2022/09/03 06:36:43;;;;;;;5.60;1.60;;;;;;;25.22;39.17;100784.69;5037129;28;20052;-78
2022/09/03 06:39:08;;;;;;;8.15;2.28;;;;;;;26.85;32.36;100789.66;5041643;28;20040;-77
2022/09/03 06:41:35;;;;;;;2.83;1.95;;;;;;;28.32;30.62;100792.97;5061665;28;20029;-76
2022/09/03 06:44:04;;;;;;;4.00;1.60;;;;;;;30.02;28.78;100791.97;5069250;28;20035;-77
2022/09/03 06:46:32;;;;;;;9.38;2.67;;;;;;;31.41;26.01;100792.78;5054956;28;20401;-79
2022/09/03 06:48:57;;;;;;;4.15;1.70;;;;;;;32.72;24.90;100782.59;5071287;28;20032;-76
2022/09/03 06:51:27;;;;;;;5.50;1.77;;;;;;;33.46;23.05;100782.94;5071521;28;20025;-77
2022/09/03 06:53:58;;;;;;;4.03;1.58;;;;;;;33.89;21.76;100772.31;5071782;28;20052;-77
2022/09/03 06:56:27;;;;;;;3.63;1.98;;;;;;;34.59;20.48;100777.19;5072595;28;20381;-78
2022/09/03 06:59:16;;;;;;;5.32;1.90;;;;;;;35.17;20.73;100756.81;5072574;28;20048;-76
2022/09/03 07:01:44;;;;;;;7.05;2.30;;;;;;;35.80;21.03;100753.47;5072706;28;20025;-77
2022/09/03 07:04:12;;;;;;;3.00;2.00;;;;;;;35.09;19.81;100750.41;5071659;28;20466;-76
2022/09/03 07:06:40;;;;;;;3.80;2.20;;;;;;;34.26;20.66;100753.75;5054769;28;20493;-75
2022/09/03 07:09:07;;;;;;;6.03;2.20;;;;;;;31.01;22.72;100754.41;5071586;28;20153;-77
2022/09/03 07:11:34;;;;;;;3.60;2.03;;;;;;;29.51;24.80;100748.94;5071599;28;20488;-76
2022/09/03 07:14:02;;;;;;;4.40;2.17;;;;;;;28.12;26.15;100755.19;5071010;28;20052;-75
2022/09/03 07:16:32;;;;;;;4.18;2.17;;;;;;;27.35;28.42;100761.13;5072556;28;20111;-77
2022/09/03 07:18:59;;;;;;;4.57;2.10;;;;;;;27.17;28.71;100769.06;5072444;28;20078;-76
2022/09/03 07:21:27;;;;;;;5.78;2.13;;;;;;;26.97;29.31;100769.41;5053672;28;20037;-79
2022/09/03 07:23:55;;;;;;;5.13;2.10;;;;;;;26.45;30.08;100771.31;5035005;28;20025;-76
2022/09/03 07:26:21;;;;;;;4.07;2.10;;;;;;;26.69;30.24;100776.44;5051822;28;20371;-77
2022/09/03 07:29:08;;;;;;;6.35;2.03;;;;;;;27.49;29.10;100777.03;5051682;28;20040;-76
2022/09/03 07:31:37;;;;;;;3.42;2.08;;;;;;;28.27;27.15;100776.38;5054787;28;20041;-76
2022/09/03 07:34:07;;;;;;;4.13;2.30;;;;;;;28.25;27.57;100772.47;5055003;28;20037;-75
2022/09/03 07:36:38;;;;;;;7.38;2.35;;;;;;;28.91;27.31;100767.63;5038270;28;20124;-75
2022/09/03 07:39:04;;;;;;;11.93;2.95;;;;;;;30.69;25.40;100769.75;5056153;28;20191;-76
2022/09/03 07:41:33;;;;;;;4.45;2.03;;;;;;;32.54;24.59;100761.41;5056010;28;20054;-75
2022/09/03 07:44:09;;;;;;;6.38;2.50;;;;;;;32.96;22.39;100763.47;5038540;28;20063;-76
2022/09/03 07:46:40;;;;;;;4.32;2.35;;;;;;;33.44;21.87;100753.94;5038014;28;20402;-77
2022/09/03 07:49:06;;;;;;;4.93;2.75;;;;;;;34.29;21.26;100759.16;5038041;28;20535;-75
2022/09/03 07:51:34;;;;;;;6.90;3.35;;;;;;;34.10;21.29;100743.84;5055377;28;20025;-76
2022/09/03 07:54:15;;;;;;;6.53;2.63;;;;;;;34.04;21.18;100753.16;5054288;28;20086;-76
2022/09/03 07:56:41;;;;;;;6.55;2.53;;;;;;;34.17;21.88;100742.81;5056005;28;20040;-78
2022/09/03 07:59:08;;;;;;;7.10;3.00;;;;;;;34.60;21.55;100752.00;5056116;28;20025;-75
2022/09/03 08:01:35;;;;;;;4.45;2.85;;;;;;;34.96;20.73;100748.16;5021531;28;20473;-74
2022/09/03 08:04:02;;;;;;;6.55;2.75;;;;;;;34.25;21.59;100743.31;5054465;28;20066;-76
2022/09/03 08:06:30;;;;;;;5.25;2.97;;;;;;;33.33;21.83;100745.03;5055031;28;20421;-75
2022/09/03 08:08:58;;;;;;;5.18;2.78;;;;;;;33.12;21.89;100748.13;5021809;28;20359;-80
2022/09/03 08:11:26;;;;;;;6.07;2.53;;;;;;;33.45;22.88;100751.75;5038618;28;20505;-79
2022/09/03 08:14:05;;;;;;;12.52;3.40;;;;;;;33.90;22.25;100756.06;5038708;28;20041;-78
2022/09/03 08:16:48;;;;;;;7.40;2.80;;;;;;;32.66;22.24;100753.34;5054766;28;20032;-77
2022/09/03 08:19:17;;;;;;;5.88;2.95;;;;;;;33.01;22.84;100749.69;5055223;28;20029;-81
2022/09/03 08:21:42;;;;;;;12.95;3.22;;;;;;;33.54;22.75;100747.84;5056272;28;20509;-79
2022/09/03 08:24:13;;;;;;;8.85;2.85;;;;;;;33.40;22.37;100756.66;5038187;28;20534;-77
2022/09/03 08:26:41;;;;;;;7.38;3.05;;;;;;;33.02;22.39;100754.19;5038645;28;20029;-79
2022/09/03 08:29:09;;;;;;;8.18;3.08;;;;;;;32.90;23.32;100747.47;5037751;28;20044;-76
2022/09/03 08:31:36;;;;;;;9.07;2.97;;;;;;;33.42;23.38;100735.25;5055907;28;20155;-79
2022/09/03 08:34:05;;;;;;;10.00;2.95;;;;;;;32.37;22.98;100731.41;5054687;28;20528;-73
2022/09/03 08:36:33;;;;;;;5.53;2.95;;;;;;;32.27;23.96;100731.50;5055245;28;20031;-76
2022/09/03 08:39:03;;;;;;;5.20;2.58;;;;;;;32.20;23.78;100733.25;5055668;28;20484;-77
2022/09/03 08:41:48;;;;;;;8.65;2.83;;;;;;;32.18;24.54;100735.31;5038548;28;20037;-79
2022/09/03 08:44:22;;;;;;;8.80;3.00;;;;;;;31.09;24.69;100737.28;5054150;28;20051;-77
2022/09/03 08:47:05;;;;;;;4.63;2.42;;;;;;;30.80;25.58;100728.56;5054665;28;20524;-81
2022/09/03 08:49:43;;;;;;;4.55;2.80;;;;;;;30.80;25.23;100724.84;5055376;28;20037;-77
2022/09/03 08:52:48;;;;;;;4.80;2.67;;;;;;;30.63;25.31;100728.75;5055318;28;20109;-84
2022/09/03 08:55:26;;;;;;;5.90;3.28;;;;;;;30.18;26.28;100729.78;5046985;28;20563;-82
2022/09/03 08:58:13;;;;;;;4.25;2.53;;;;;;;28.70;27.27;100735.78;5055583;28;20064;-77
2022/09/03 09:00:50;;;;;;;4.25;2.47;;;;;;;28.08;28.76;100743.09;5037374;28;20117;-78
2022/09/03 09:03:54;;;;;;;4.18;2.28;;;;;;;27.96;28.89;100731.88;5054791;28;20347;-76
2022/09/03 09:06:34;;;;;;;5.85;2.75;;;;;;;27.60;29.34;100732.47;5054424;28;20462;-77
2022/09/03 09:09:17;;;;;;;8.25;4.07;;;;;;;27.33;29.88;100733.72;5053432;28;20385;-79
2022/09/03 09:12:20;;;;;;;4.82;2.38;;;;;;;27.41;30.92;100743.22;5055109;28;20025;-78
2022/09/03 09:15:10;;;;;;;8.18;3.30;;;;;;;26.88;30.46;100734.88;5055216;28;20147;-78
2022/09/03 09:17:42;;;;;;;11.23;3.10;;;;;;;27.05;30.26;100732.78;5054537;28;20020;-76
2022/09/03 09:20:20;;;;;;;4.85;2.53;;;;;;;27.22;31.20;100728.31;5054918;28;20028;-76
2022/09/03 09:22:53;;;;;;;9.77;2.65;;;;;;;27.17;30.95;100724.25;5053029;28;20462;-77
2022/09/03 09:25:23;;;;;;;7.00;3.20;;;;;;;26.93;31.28;100730.94;5052992;28;20025;-75
2022/09/03 09:28:02;;;;;;;4.25;2.28;;;;;;;26.86;31.88;100720.06;5052994;28;20029;-77
2022/09/03 09:30:31;;;;;;;5.18;2.75;;;;;;;26.52;31.61;100726.50;5054071;28;20021;-78
2022/09/03 09:32:59;;;;;;;8.27;2.83;;;;;;;26.13;32.51;100720.09;5053804;28;20512;-80
2022/09/03 09:35:24;;;;;;;11.52;2.92;;;;;;;26.13;32.74;100717.16;5072775;28;20493;-77
2022/09/03 09:37:55;;;;;;;15.40;3.67;;;;;;;26.12;32.90;100703.88;5056484;28;20028;-82
2022/09/03 09:40:42;;;;;;;5.00;2.58;;;;;;;26.04;33.03;100711.91;5057172;28;20048;-81
2022/09/03 09:43:10;;;;;;;5.53;3.25;;;;;;;25.68;33.12;100706.38;5107001;28;20039;-80
2022/09/03 09:45:39;;;;;;;5.70;2.90;;;;;;;25.58;33.99;100704.66;5055898;28;20068;-79
2022/09/03 09:48:09;;;;;;;5.15;2.25;;;;;;;25.57;34.00;100692.19;5074380;28;20101;-81
2022/09/03 09:50:35;;;;;;;6.30;2.60;;;;;;;25.18;34.02;100702.38;5073904;28;20043;-78
2022/09/03 09:53:07;;;;;;;6.88;2.58;;;;;;;24.94;34.35;100697.91;5073639;28;20074;-77
2022/09/03 09:55:33;;;;;;;3.53;3.20;;;;;;;25.10;34.87;100695.75;5072601;28;20081;-78
2022/09/03 09:58:09;;;;;;;4.95;2.17;;;;;;;24.64;34.06;100692.03;5074566;28;20078;-79
2022/09/03 10:00:36;;;;;;;6.38;2.78;;;;;;;24.07;34.97;100700.25;5056616;28;20017;-76
2022/09/03 10:03:06;;;;;;;6.13;2.60;;;;;;;24.02;35.93;100699.06;5056112;28;20043;-77
2022/09/03 10:05:32;;;;;;;4.00;2.00;;;;;;;23.87;35.54;100704.06;5072747;28;20021;-80
2022/09/03 10:08:00;;;;;;;3.97;2.30;;;;;;;23.77;35.82;100707.53;5072638;28;20075;-76
2022/09/03 10:10:27;;;;;;;3.28;1.90;;;;;;;23.49;35.61;100695.88;5077974;28;20082;-85
2022/09/03 10:13:08;;;;;;;7.25;2.15;;;;;;;23.31;36.41;100688.16;5096620;28;20023;-76
2022/09/03 10:16:15;;;;;;;3.78;1.90;;;;;;;23.29;36.33;100682.16;5073527;28;20044;-77
2022/09/03 10:18:43;;;;;;;4.60;2.53;;;;;;;23.26;36.94;100684.06;5074619;28;20411;-77
2022/09/03 10:21:16;;;;;;;4.68;2.55;;;;;;;23.28;37.55;100678.44;5074264;28;20024;-83
2022/09/03 10:23:57;;;;;;;9.52;2.40;;;;;;;23.08;36.77;100667.63;5072838;28;20032;-82
2022/09/03 10:26:29;;;;;;;3.42;2.17;;;;;;;22.96;38.14;100672.22;5074140;28;20418;-81
2022/09/03 10:28:58;;;;;;;4.35;2.45;;;;;;;22.96;37.97;100677.25;5072627;28;20531;-81
2022/09/03 10:31:45;;;;;;;4.70;2.58;;;;;;;22.71;37.97;100677.63;5073209;28;20032;-82
2022/09/03 10:34:23;;;;;;;6.50;2.53;;;;;;;22.30;38.66;100683.44;5073113;28;20488;-81
2022/09/03 10:36:58;;;;;;;7.03;2.15;;;;;;;22.28;39.01;100671.56;5072595;28;20031;-81
2022/09/03 10:39:42;;;;;;;5.20;2.38;;;;;;;22.28;39.19;100663.59;5073459;28;20016;-77
2022/09/03 10:42:29;;;;;;;5.53;2.30;;;;;;;22.30;38.91;100663.81;5075710;28;20028;-79
2022/09/03 10:45:13;;;;;;;3.58;2.05;;;;;;;22.38;39.21;100676.31;5087179;28;20493;-79
2022/09/03 10:48:02;;;;;;;5.88;2.08;;;;;;;22.33;39.58;100651.03;5078815;28;20037;-80
2022/09/03 10:50:38;;;;;;;5.30;2.15;;;;;;;22.21;39.44;100655.59;5085433;28;20043;-75
2022/09/03 10:53:24;;;;;;;8.57;2.83;;;;;;;22.14;39.72;100661.28;5078772;28;20032;-79
2022/09/03 10:56:00;;;;;;;8.15;2.65;;;;;;;22.15;40.98;100657.81;5090045;28;20489;-81
2022/09/03 10:58:51;;;;;;;5.90;2.10;;;;;;;22.07;40.59;100651.13;5069807;28;20028;-80
2022/09/03 11:01:23;;;;;;;13.73;3.47;;;;;;;21.94;39.65;100642.44;5077088;28;20082;-78
2022/09/03 11:04:14;;;;;;;4.25;2.17;;;;;;;21.85;40.77;100648.75;5083687;28;20028;-81
2022/09/03 11:07:04;;;;;;;6.47;3.28;;;;;;;21.67;41.28;100636.72;5101767;28;20036;-79
2022/09/03 11:09:35;;;;;;;4.05;2.53;;;;;;;21.55;40.83;100625.88;5028144;28;20032;-80
2022/09/03 11:15:22;;;;;;;5.40;2.58;;;;;;;21.71;40.86;100623.94;5155247;22;20501;-74
2022/09/03 11:17:52;;;;;;;9.13;2.35;;;;;;;21.94;40.57;100624.97;5045430;28;20028;-77
2022/09/03 11:20:20;;;;;;;26.60;4.03;;;;;;;22.13;39.05;100616.03;5058740;28;20020;-76
2022/09/03 11:22:47;;;;;;;5.47;2.15;;;;;;;22.26;39.58;100616.03;5058538;28;20054;-76
2022/09/03 11:25:14;;;;;;;6.65;2.30;;;;;;;22.49;40.40;100614.09;5076590;28;20032;-76
2022/09/03 11:27:40;;;;;;;4.93;2.10;;;;;;;22.62;39.58;100611.09;5058382;28;20069;-76
2022/09/03 11:30:07;;;;;;;7.25;2.22;;;;;;;22.61;39.23;100612.47;5058114;28;20119;-80
2022/09/03 11:32:39;;;;;;;6.55;2.40;;;;;;;22.51;38.89;100626.75;5058872;28;20075;-73
2022/09/03 11:35:14;;;;;;;6.15;2.45;;;;;;;22.40;38.97;100629.94;5076179;28;20033;-71
2022/09/03 11:37:56;;;;;;;4.35;2.40;;;;;;;22.37;38.84;100621.56;5076227;28;20027;-72
2022/09/03 11:40:28;;;;;;;4.03;2.30;;;;;;;22.24;38.90;100619.50;5075954;28;20035;-71
2022/09/03 11:43:10;;;;;;;6.82;2.72;;;;;;;22.25;39.08;100611.53;5076401;28;20029;-75
2022/09/03 11:45:37;;;;;;;6.93;3.08;;;;;;;22.35;38.92;100609.69;5059420;28;20024;-73
2022/09/03 11:48:16;;;;;;;5.60;2.42;;;;;;;22.35;39.07;100595.13;5075758;28;20449;-73
2022/09/03 11:50:51;;;;;;;5.20;2.65;;;;;;;22.14;38.77;100611.78;5092785;28;20032;-75